Forside
METAR-TAF:

METAR-TAF

Lufthavne :

Southern Wisconsin Regional Airport

Janesville, Wisconsin, USA

Breddekreds: 42-37N, længdekreds: 089-02W, højde: 246 m

Aktuelle vejr

Denne rapport blev lavet for 27 minutter siden, kl. 07:55 UTC
Vind stille
Temperatur 15°C
Fugtighed 100%
Tryk 1019 hPa
Sigt: 16.1 km
skyfri

METAR: KJVL 310755Z AUTO 00000KT 10SM CLR 15/15 A3009 RMK AO2

Tid: 03:22 (08:22 UTC)

Vejrudsigter

Denne rapport blev lavet for 3 timer og 2 minutter siden, kl. 05:20 UTC
Foreløbig gælder fra 31 på 06 UTC til 01 på 06 UTC
Vind kt fra nord
Sigt: 10 km
Nogle få skyer i en højde af 20000 ft
Fra 31 på 1100 UTC
Vind 3 kt fra sydsydvest
Sigt: 10 km
Nogle få skyer i en højde af 20000 ft
Fra 31 på 1600 UTC
Vind 7 kt fra vestsydvest
Sigt: 10 km
Nogle få skyer i en højde af 20000 ft
Fra 31 på 2100 UTC
Vind 5 kt fra vest
Sigt: 10 km
Spredte skyer i en højde af 25000 ft

TAF: KJVL 310520Z 3106/0106 00000KT P6SM FEW200 FM311100 21003KT P6SM FEW200 FM311600 24007KT P6SM FEW200 FM312100 27005KT P6SM SCT250

Vejrobservationer og prognoser fra mere end 4000 lufthavne (METAR og TAF).

De gule og røde prikker repræsenterer de meteorologiske stationer.

Flyt musen over at se navnet på stationen.

Så klik over at se vejr observationer og prognoser.

At skifte det kort: Klik på de grønne knapper med et sort kors for at zoome ind; på den grønne knap med en bindestreg for at zoome ud; eller på de grønne pile for tilstødende kort.


METAR-TAF: